createdAt,value
2022-10-24T00:01:17.941Z,99420.69
2022-10-24T00:03:44.850Z,99409.59
2022-10-24T00:06:12.990Z,99389.72
2022-10-24T00:08:41.450Z,99397.50
2022-10-24T00:11:16.107Z,99404.53
2022-10-24T00:13:43.809Z,99415.88
2022-10-24T00:16:11.767Z,99406.34
2022-10-24T00:18:38.607Z,99413.19
2022-10-24T00:21:05.349Z,99417.47
2022-10-24T00:23:32.075Z,99424.13
2022-10-24T00:26:04.274Z,99434.66
2022-10-24T00:28:35.777Z,99427.94
2022-10-24T00:31:02.341Z,99414.16
2022-10-24T00:33:29.175Z,99402.09
2022-10-24T00:35:55.799Z,99380.53
2022-10-24T00:38:22.365Z,99375.47
2022-10-24T00:40:48.931Z,99350.59
2022-10-24T00:43:24.315Z,99355.72
2022-10-24T00:45:55.090Z,99358.16
2022-10-24T00:48:34.085Z,99378.75
2022-10-24T00:51:18.786Z,99398.38
2022-10-24T00:53:50.549Z,99403.59
2022-10-24T00:56:19.512Z,99401.13
2022-10-24T00:58:46.886Z,99396.94
2022-10-24T01:01:13.618Z,99399.50
2022-10-24T01:03:40.610Z,99400.38
2022-10-24T01:06:25.414Z,99391.78
2022-10-24T01:09:08.873Z,99379.81
2022-10-24T01:11:57.295Z,99360.13
2022-10-24T01:14:23.727Z,99344.53
2022-10-24T01:17:00.401Z,99353.81
2022-10-24T01:19:45.504Z,99355.56
2022-10-24T01:22:22.830Z,99343.56
2022-10-24T01:25:10.567Z,99353.03
2022-10-24T01:28:13.903Z,99354.84
2022-10-24T01:30:50.053Z,99354.88
2022-10-24T01:33:26.628Z,99355.69
2022-10-24T01:35:58.996Z,99357.44
2022-10-24T01:38:41.427Z,99357.44
2022-10-24T01:41:14.458Z,99362.56
2022-10-24T01:43:49.128Z,99363.34
2022-10-24T01:46:22.741Z,99351.06
2022-10-24T01:49:00.401Z,99351.03
2022-10-24T01:51:30.418Z,99344.06
2022-10-24T01:53:57.674Z,99339.75
2022-10-24T01:56:26.049Z,99345.91
2022-10-24T01:58:52.608Z,99338.16
2022-10-24T02:01:25.501Z,99344.31
2022-10-24T02:03:56.194Z,99345.09
2022-10-24T02:06:30.215Z,99364.88
2022-10-24T02:09:01.662Z,99371.94
2022-10-24T02:11:28.322Z,99376.25
2022-10-24T02:14:03.133Z,99398.84
2022-10-24T02:16:30.541Z,99390.19
2022-10-24T02:18:58.674Z,99389.38
2022-10-24T02:21:27.916Z,99377.44
2022-10-24T02:24:11.750Z,99358.63
2022-10-24T02:26:47.380Z,99356.88
2022-10-24T02:29:41.816Z,99361.38
2022-10-24T02:32:12.839Z,99366.38
2022-10-24T02:34:41.038Z,99374.16
2022-10-24T02:37:10.105Z,99374.16
2022-10-24T02:39:39.737Z,99374.94
2022-10-24T02:42:08.418Z,99375.75
2022-10-24T02:44:36.386Z,99370.78
2022-10-24T02:47:05.814Z,99358.75
2022-10-24T02:49:32.619Z,99357.94
2022-10-24T02:52:00.128Z,99350.28
2022-10-24T02:54:26.720Z,99334.91
2022-10-24T02:56:57.990Z,99341.50
2022-10-24T02:59:24.519Z,99365.59
2022-10-24T03:01:51.060Z,99376.69
2022-10-24T03:04:17.653Z,99381.00
2022-10-24T03:06:44.235Z,99370.78
2022-10-24T03:09:10.774Z,99364.75
2022-10-24T03:11:37.387Z,99362.22
2022-10-24T03:14:04.394Z,99373.31
2022-10-24T03:16:30.887Z,99365.75
2022-10-24T03:18:57.855Z,99350.19
2022-10-24T03:21:24.405Z,99343.84
2022-10-24T03:23:50.923Z,99336.22
2022-10-24T03:26:17.419Z,99319.16
2022-10-24T03:28:43.933Z,99309.69
2022-10-24T03:31:10.506Z,99301.91
2022-10-24T03:33:37.149Z,99312.28
2022-10-24T03:36:04.044Z,99303.72
2022-10-24T03:38:30.589Z,99284.66
2022-10-24T03:40:57.910Z,99297.34
2022-10-24T03:43:24.431Z,99289.59
2022-10-24T03:45:50.936Z,99257.59
2022-10-24T03:48:17.485Z,99236.97
2022-10-24T03:50:44.099Z,99226.63
2022-10-24T03:53:10.637Z,99189.41
2022-10-24T03:55:38.211Z,99206.69
2022-10-24T03:58:04.719Z,99224.09
2022-10-24T04:00:34.288Z,99227.59
2022-10-24T04:03:00.779Z,99232.75
2022-10-24T04:05:27.408Z,99237.03
2022-10-24T04:07:54.119Z,99242.97
2022-10-24T04:10:20.639Z,99253.22
2022-10-24T04:12:47.132Z,99260.97
2022-10-24T04:15:13.704Z,99259.22
2022-10-24T04:17:40.549Z,99282.50
2022-10-24T04:20:07.754Z,99316.22
2022-10-24T04:22:34.444Z,99303.81
2022-10-24T04:25:01.009Z,99272.59
2022-10-24T04:27:27.719Z,99279.59
2022-10-24T04:29:54.295Z,99286.53
2022-10-24T04:32:20.874Z,99297.78
2022-10-24T04:34:47.597Z,99306.56
2022-10-24T04:37:14.115Z,99298.91
2022-10-24T04:39:40.704Z,99300.44
2022-10-24T04:42:07.203Z,99304.75
2022-10-24T04:44:33.738Z,99287.81
2022-10-24T04:47:00.210Z,99279.97
2022-10-24T04:49:26.688Z,99296.44
2022-10-24T04:51:53.206Z,99303.31
2022-10-24T04:54:19.691Z,99319.72
2022-10-24T04:56:46.225Z,99318.13
2022-10-24T04:59:12.735Z,99321.50
2022-10-24T05:01:39.297Z,99321.50
2022-10-24T05:04:05.935Z,99317.34
2022-10-24T05:06:32.490Z,99304.50
2022-10-24T05:08:58.999Z,99294.13
2022-10-24T05:11:25.488Z,99294.16
2022-10-24T05:13:52.085Z,99300.25
2022-10-24T05:16:18.572Z,99301.16
2022-10-24T05:18:45.044Z,99297.56
2022-10-24T05:21:11.970Z,99309.59
2022-10-24T05:23:38.537Z,99323.41
2022-10-24T05:26:05.087Z,99320.03
2022-10-24T05:28:31.772Z,99314.97
2022-10-24T05:30:58.538Z,99298.59
2022-10-24T05:33:25.126Z,99300.38
2022-10-24T05:35:52.412Z,99296.09
2022-10-24T05:38:19.479Z,99290.06
2022-10-24T05:40:51.382Z,99275.50
2022-10-24T05:43:18.837Z,99271.91
2022-10-24T05:45:47.606Z,99286.63
2022-10-24T05:48:14.183Z,99293.56
2022-10-24T05:50:40.740Z,99283.28
2022-10-24T05:53:08.719Z,99282.44
2022-10-24T05:55:36.156Z,99268.59
2022-10-24T05:58:02.953Z,99285.03
2022-10-24T06:00:29.526Z,99280.00
2022-10-24T06:02:56.021Z,99257.59
2022-10-24T06:05:22.541Z,99249.75
2022-10-24T06:07:49.243Z,99257.50
2022-10-24T06:10:16.072Z,99267.72
2022-10-24T06:12:43.185Z,99295.34
2022-10-24T06:15:12.826Z,99322.09
2022-10-24T06:17:39.316Z,99320.63
2022-10-24T06:20:06.258Z,99299.13
2022-10-24T06:22:32.824Z,99275.91
2022-10-24T06:25:00.194Z,99256.09
2022-10-24T06:27:26.767Z,99261.13
2022-10-24T06:29:53.308Z,99287.09
2022-10-24T06:32:19.858Z,99279.41
2022-10-24T06:34:46.499Z,99276.84
2022-10-24T06:37:13.116Z,99285.34
2022-10-24T06:39:39.595Z,99301.03
2022-10-24T06:42:06.130Z,99312.19
2022-10-24T06:44:32.764Z,99339.75
2022-10-24T06:46:59.270Z,99366.56
2022-10-24T06:49:25.775Z,99378.66
2022-10-24T06:51:52.307Z,99383.06
2022-10-24T06:54:18.804Z,99399.31
2022-10-24T06:56:45.882Z,99432.94
2022-10-24T06:59:16.659Z,99445.91
2022-10-24T07:01:43.956Z,99452.84
2022-10-24T07:04:10.805Z,99465.78
2022-10-24T07:06:37.376Z,99470.94
2022-10-24T07:09:05.775Z,99481.34
2022-10-24T07:11:34.035Z,99492.63
2022-10-24T07:14:00.969Z,99502.97
2022-10-24T07:16:30.040Z,99487.53
2022-10-24T07:18:56.676Z,99487.41
2022-10-24T07:21:28.596Z,99496.06
2022-10-24T07:23:56.200Z,99521.16
2022-10-24T07:26:24.563Z,99530.63
2022-10-24T07:28:54.819Z,99521.97
2022-10-24T07:31:23.822Z,99526.34
2022-10-24T07:33:51.338Z,99522.88
2022-10-24T07:36:20.337Z,99519.38
2022-10-24T07:38:48.079Z,99518.50
2022-10-24T07:41:15.121Z,99535.69
2022-10-24T07:43:41.698Z,99545.19
2022-10-24T07:46:10.376Z,99549.50
2022-10-24T07:48:37.992Z,99552.16
2022-10-24T07:51:09.395Z,99554.72
2022-10-24T07:53:36.174Z,99559.03
2022-10-24T07:56:05.595Z,99553.81
2022-10-24T07:58:32.150Z,99558.97
2022-10-24T08:01:04.226Z,99569.31
2022-10-24T08:03:31.116Z,99580.50
2022-10-24T08:05:57.889Z,99591.75
2022-10-24T08:08:35.752Z,99596.91
2022-10-24T08:11:09.331Z,99593.38
2022-10-24T08:13:36.031Z,99595.84
2022-10-24T08:16:05.363Z,99608.84
2022-10-24T08:18:34.654Z,99612.28
2022-10-24T08:21:07.924Z,99630.38
2022-10-24T08:23:36.254Z,99634.59
2022-10-24T08:26:07.293Z,99656.22
2022-10-24T08:28:34.190Z,99663.09
2022-10-24T08:31:04.246Z,99677.78
2022-10-24T08:33:31.747Z,99677.78
2022-10-24T08:36:00.578Z,99682.16
2022-10-24T08:38:28.713Z,99682.03
2022-10-24T08:40:56.371Z,99694.97
2022-10-24T08:43:23.942Z,99700.94
2022-10-24T08:46:02.598Z,99709.53
2022-10-24T08:48:35.187Z,99716.47
2022-10-24T08:51:34.237Z,99723.50
2022-10-24T08:54:02.086Z,99726.91
2022-10-24T08:56:32.164Z,99719.28
2022-10-24T08:59:00.470Z,99717.41
2022-10-24T09:01:40.179Z,99722.59
2022-10-24T09:04:10.950Z,99724.28
2022-10-24T09:06:38.155Z,99726.09
2022-10-24T09:09:12.049Z,99714.84
2022-10-24T09:11:56.727Z,99724.28
2022-10-24T09:14:36.357Z,99723.38
2022-10-24T09:17:21.100Z,99729.38
2022-10-24T09:20:01.115Z,99733.50
2022-10-24T09:22:32.090Z,99748.34
2022-10-24T09:25:08.025Z,99750.72
2022-10-24T09:27:37.428Z,99753.25
2022-10-24T09:30:06.435Z,99752.38
2022-10-24T09:32:35.461Z,99754.13
2022-10-24T09:35:07.771Z,99758.44
2022-10-24T09:37:39.250Z,99760.91
2022-10-24T09:40:22.799Z,99754.84
2022-10-24T09:43:05.083Z,99775.63
2022-10-24T09:45:46.290Z,99778.31
2022-10-24T09:48:26.097Z,99778.13
2022-10-24T09:50:56.839Z,99779.78
2022-10-24T09:53:32.737Z,99775.53
2022-10-24T09:56:07.216Z,99782.25
2022-10-24T09:58:34.000Z,99783.84
2022-10-24T10:01:07.618Z,99781.19
2022-10-24T10:03:35.335Z,99797.66
2022-10-24T10:06:18.792Z,99793.19
2022-10-24T10:08:55.625Z,99800.00
2022-10-24T10:11:30.933Z,99800.97
2022-10-24T10:14:00.370Z,99796.44
2022-10-24T10:16:29.335Z,99796.44
2022-10-24T10:19:20.699Z,99806.72
2022-10-24T10:22:01.890Z,99800.59
2022-10-24T10:24:41.513Z,99790.25
2022-10-24T10:27:30.375Z,99796.25
2022-10-24T10:30:12.089Z,99795.91
2022-10-24T10:32:53.070Z,99798.44
2022-10-24T10:35:25.953Z,99805.44
2022-10-24T10:38:27.835Z,99808.00
2022-10-24T10:41:03.387Z,99806.94
2022-10-24T10:43:54.669Z,99801.47
2022-10-24T10:46:29.737Z,99810.03
2022-10-24T10:48:59.106Z,99801.88
2022-10-24T10:51:42.198Z,99814.13
2022-10-24T10:54:24.103Z,99804.47
2022-10-24T10:57:02.490Z,99807.91
2022-10-24T10:59:59.900Z,99803.50
2022-10-24T11:02:48.120Z,99800.03
2022-10-24T11:05:35.719Z,99792.00
2022-10-24T11:08:27.497Z,99793.75
2022-10-24T11:11:01.134Z,99780.69
2022-10-24T11:13:34.447Z,99773.66
2022-10-24T11:16:05.771Z,99766.59
2022-10-24T11:18:40.036Z,99768.22
2022-10-24T11:21:11.648Z,99769.75
2022-10-24T11:23:44.985Z,99764.41
2022-10-24T11:26:44.882Z,99764.44
2022-10-24T11:29:54.345Z,99753.31
2022-10-24T11:32:24.756Z,99754.06
2022-10-24T11:35:03.622Z,99761.72
2022-10-24T11:37:35.992Z,99753.81
2022-10-24T11:40:05.750Z,99767.72
2022-10-24T11:43:02.258Z,99771.13
2022-10-24T11:45:37.610Z,99776.97
2022-10-24T11:48:19.342Z,99770.94
2022-10-24T11:50:52.203Z,99776.25
2022-10-24T11:53:31.730Z,99769.38
2022-10-24T11:56:27.338Z,99764.13
2022-10-24T11:59:04.823Z,99750.03
2022-10-24T12:02:11.039Z,99747.50
2022-10-24T12:04:59.405Z,99747.94
2022-10-24T12:07:28.847Z,99749.72
2022-10-24T12:10:10.516Z,99746.16
2022-10-24T12:13:07.849Z,99748.53
2022-10-24T12:15:37.651Z,99739.75
2022-10-24T12:18:13.330Z,99743.91
2022-10-24T12:20:41.219Z,99741.31
2022-10-24T12:23:18.225Z,99743.75
2022-10-24T12:25:47.355Z,99736.75
2022-10-24T12:28:25.484Z,99737.69
2022-10-24T12:31:14.765Z,99738.56
2022-10-24T12:33:43.444Z,99735.97
2022-10-24T12:36:10.747Z,99735.22
2022-10-24T12:38:37.315Z,99730.03
2022-10-24T12:41:06.929Z,99733.69
2022-10-24T12:43:44.360Z,99738.41
2022-10-24T12:46:22.589Z,99731.69
2022-10-24T12:48:59.008Z,99726.69
2022-10-24T12:51:37.790Z,99726.53
2022-10-24T12:54:13.579Z,99719.22
2022-10-24T12:56:49.591Z,99726.13
2022-10-24T12:59:27.464Z,99718.53
2022-10-24T13:02:45.921Z,99717.53
2022-10-24T13:05:12.483Z,99717.56
2022-10-24T13:08:07.998Z,99724.59
2022-10-24T13:10:48.275Z,99712.38
2022-10-24T13:14:18.496Z,99711.94
2022-10-24T13:17:06.789Z,99705.97
2022-10-24T13:19:33.599Z,99705.44
2022-10-24T13:22:01.914Z,99700.25
2022-10-24T13:24:40.525Z,99699.38
2022-10-24T13:27:11.900Z,99692.38
2022-10-24T13:29:39.759Z,99694.28
2022-10-24T13:32:06.236Z,99697.06
2022-10-24T13:34:52.417Z,99701.41
2022-10-24T13:37:34.700Z,99697.91
2022-10-24T13:40:10.207Z,99698.56
2022-10-24T13:42:43.110Z,99696.91
2022-10-24T13:45:22.984Z,99700.38
2022-10-24T13:47:54.455Z,99698.44
2022-10-24T13:50:28.886Z,99689.81
2022-10-24T13:53:29.765Z,99694.97
2022-10-24T13:56:02.066Z,99691.69
2022-10-24T13:58:40.965Z,99699.53
2022-10-24T14:01:25.659Z,99688.75
2022-10-24T14:03:53.666Z,99699.38
2022-10-24T14:06:30.079Z,99698.72
2022-10-24T14:09:06.809Z,99697.00
2022-10-24T14:11:39.574Z,99696.00
2022-10-24T14:14:14.152Z,99701.19
2022-10-24T14:16:40.731Z,99696.03
2022-10-24T14:19:28.328Z,99704.63
2022-10-24T14:21:57.836Z,99714.13
2022-10-24T14:24:24.834Z,99710.97
2022-10-24T14:26:54.164Z,99717.22
2022-10-24T14:29:32.811Z,99714.28
2022-10-24T14:32:02.915Z,99715.38
2022-10-24T14:34:35.344Z,99716.31
2022-10-24T14:37:08.876Z,99718.88
2022-10-24T14:39:38.447Z,99719.97
2022-10-24T14:42:05.330Z,99719.00
2022-10-24T14:44:33.103Z,99729.81
2022-10-24T14:47:18.378Z,99722.81
2022-10-24T14:49:44.959Z,99731.50
2022-10-24T14:52:14.406Z,99736.69
2022-10-24T14:54:44.095Z,99736.78
2022-10-24T14:57:22.869Z,99738.53
2022-10-24T14:59:52.886Z,99743.81
2022-10-24T15:02:33.010Z,99740.28
2022-10-24T15:05:24.535Z,99730.84
2022-10-24T15:10:47.927Z,99746.53
2022-10-24T15:13:21.877Z,99747.47
2022-10-24T15:16:01.141Z,99753.72
2022-10-24T15:18:31.028Z,99755.44
2022-10-24T15:21:07.250Z,99756.47
2022-10-24T15:23:38.184Z,99750.41
2022-10-24T15:26:19.510Z,99752.19
2022-10-24T15:28:47.930Z,99760.16
2022-10-24T15:31:17.672Z,99752.19
2022-10-24T15:33:44.585Z,99747.03
2022-10-24T15:36:30.738Z,99739.25
2022-10-24T15:39:03.971Z,99742.91
2022-10-24T15:41:30.918Z,99744.72
2022-10-24T15:43:57.990Z,99754.34
2022-10-24T15:46:26.296Z,99748.56
2022-10-24T15:48:53.028Z,99750.16
2022-10-24T15:51:22.611Z,99752.81
2022-10-24T15:53:50.390Z,99766.69
2022-10-24T15:56:17.147Z,99772.13
2022-10-24T15:58:44.602Z,99765.94
2022-10-24T16:01:23.229Z,99775.53
2022-10-24T16:03:49.861Z,99768.66
2022-10-24T16:06:16.366Z,99767.91
2022-10-24T16:08:43.130Z,99772.28
2022-10-24T16:11:12.182Z,99780.19
2022-10-24T16:13:38.733Z,99776.94
2022-10-24T16:16:05.786Z,99780.47
2022-10-24T16:18:32.305Z,99786.47
2022-10-24T16:20:59.858Z,99773.59
2022-10-24T16:23:26.784Z,99774.50
2022-10-24T16:25:53.366Z,99780.69
2022-10-24T16:28:23.519Z,99785.97
2022-10-24T16:30:50.584Z,99785.00
2022-10-24T16:33:20.084Z,99790.50
2022-10-24T16:35:49.754Z,99781.88
2022-10-24T16:38:16.909Z,99785.38
2022-10-24T16:40:46.757Z,99784.59
2022-10-24T16:43:17.099Z,99783.72
2022-10-24T16:45:44.099Z,99784.47
2022-10-24T16:48:10.877Z,99782.22
2022-10-24T16:50:41.628Z,99785.63
2022-10-24T16:53:08.900Z,99783.75
2022-10-24T16:55:35.607Z,99783.78
2022-10-24T16:58:02.217Z,99789.91
2022-10-24T17:00:29.141Z,99788.97
2022-10-24T17:02:58.023Z,99791.75
2022-10-24T17:05:27.658Z,99803.06
2022-10-24T17:07:54.804Z,99799.69
2022-10-24T17:10:24.603Z,99805.84
2022-10-24T17:12:52.384Z,99805.84
2022-10-24T17:15:22.045Z,99811.97
2022-10-24T17:17:49.776Z,99811.13
2022-10-24T17:20:17.773Z,99805.06
2022-10-24T17:22:45.458Z,99814.66
2022-10-24T17:25:26.866Z,99825.19
2022-10-24T17:27:55.140Z,99826.22
2022-10-24T17:30:28.291Z,99821.94
2022-10-24T17:32:55.010Z,99823.59
2022-10-24T17:35:23.631Z,99829.88
2022-10-24T17:37:52.986Z,99840.19
2022-10-24T17:40:28.693Z,99843.69
2022-10-24T17:42:55.813Z,99851.69
2022-10-24T17:45:24.891Z,99855.31
2022-10-24T17:47:51.757Z,99854.56
2022-10-24T17:50:19.104Z,99862.25
2022-10-24T17:52:51.271Z,99859.69
2022-10-24T17:55:44.462Z,99863.16
2022-10-24T17:58:09.216Z,99868.38
2022-10-24T18:00:36.431Z,99857.16
2022-10-24T18:03:03.345Z,99866.69
2022-10-24T18:05:30.396Z,99873.50
2022-10-24T18:07:57.944Z,99873.63
2022-10-24T18:10:24.942Z,99877.91
2022-10-24T18:12:52.249Z,99878.66
2022-10-24T18:15:20.151Z,99881.25
2022-10-24T18:17:48.263Z,99883.84
2022-10-24T18:20:15.981Z,99877.72
2022-10-24T18:22:44.037Z,99877.81
2022-10-24T18:25:12.571Z,99878.75
2022-10-24T18:27:41.101Z,99878.72
2022-10-24T18:30:08.258Z,99879.69
2022-10-24T18:32:35.169Z,99877.16
2022-10-24T18:35:01.689Z,99886.66
2022-10-24T18:37:28.239Z,99882.34
2022-10-24T18:39:55.162Z,99886.84
2022-10-24T18:42:55.243Z,99898.22
2022-10-24T18:45:25.551Z,99906.03
2022-10-24T18:47:53.175Z,99903.56
2022-10-24T18:50:22.494Z,99906.06
2022-10-24T18:52:48.992Z,99907.81
2022-10-24T18:55:24.668Z,99899.94
2022-10-24T18:57:52.357Z,99909.53
2022-10-24T19:00:24.738Z,99903.50
2022-10-24T19:03:12.402Z,99906.09
2022-10-24T19:05:47.894Z,99903.44
2022-10-24T19:08:19.784Z,99901.72
2022-10-24T19:10:46.764Z,99911.28
2022-10-24T19:13:14.012Z,99907.88
2022-10-24T19:15:45.588Z,99915.81
2022-10-24T19:18:15.401Z,99908.94
2022-10-24T19:20:42.433Z,99913.31
2022-10-24T19:23:13.996Z,99922.94
2022-10-24T19:25:40.818Z,99920.38
2022-10-24T19:28:07.916Z,99927.34
2022-10-24T19:30:34.423Z,99927.38
2022-10-24T19:33:00.923Z,99930.88
2022-10-24T19:35:27.435Z,99931.72
2022-10-24T19:37:54.808Z,99932.59
2022-10-24T19:40:21.287Z,99942.16
2022-10-24T19:42:47.920Z,99939.56
2022-10-24T19:45:14.606Z,99932.66
2022-10-24T19:47:41.149Z,99935.28
2022-10-24T19:50:08.141Z,99944.00
2022-10-24T19:52:34.943Z,99943.97
2022-10-24T19:55:01.431Z,99948.28
2022-10-24T19:57:28.136Z,99943.09
2022-10-24T19:59:54.811Z,99951.78
2022-10-24T20:02:22.212Z,99940.53
2022-10-24T20:04:49.295Z,99944.03
2022-10-24T20:07:17.485Z,99946.63
2022-10-24T20:09:44.401Z,99947.50
2022-10-24T20:12:10.937Z,99940.63
2022-10-24T20:14:37.607Z,99945.78
2022-10-24T20:17:04.146Z,99947.56
2022-10-24T20:19:30.613Z,99942.34
2022-10-24T20:22:00.240Z,99950.13
2022-10-24T20:24:30.581Z,99955.34
2022-10-24T20:26:57.443Z,99950.13
2022-10-24T20:29:24.038Z,99945.78
2022-10-24T20:31:50.844Z,99953.63
2022-10-24T20:34:17.419Z,99955.44
2022-10-24T20:36:47.979Z,99956.34
2022-10-24T20:39:16.217Z,99965.88
2022-10-24T20:41:43.334Z,99978.75
2022-10-24T20:44:11.235Z,99976.31
2022-10-24T20:46:37.991Z,99979.09
2022-10-24T20:49:04.999Z,99982.41
2022-10-24T20:51:31.674Z,99984.06
2022-10-24T20:53:58.842Z,99983.34
2022-10-24T20:56:26.749Z,99979.03
2022-10-24T20:58:55.709Z,99986.91
2022-10-24T21:01:24.928Z,99993.00
2022-10-24T21:03:52.268Z,99992.13
2022-10-24T21:06:21.779Z,99996.41
2022-10-24T21:08:49.755Z,99988.56
2022-10-24T21:11:18.633Z,99996.38
2022-10-24T21:13:45.703Z,99998.13
2022-10-24T21:16:12.555Z,100009.38
2022-10-24T21:18:39.114Z,100012.00
2022-10-24T21:21:10.278Z,100008.53
2022-10-24T21:23:37.025Z,100012.88
2022-10-24T21:26:06.068Z,100015.53
2022-10-24T21:28:33.082Z,100012.94
2022-10-24T21:31:07.769Z,100016.41
2022-10-24T21:33:35.076Z,100012.94
2022-10-24T21:36:06.391Z,100019.88
2022-10-24T21:38:32.994Z,100023.31
2022-10-24T21:41:07.647Z,100013.75
2022-10-24T21:43:36.784Z,100009.44
2022-10-24T21:46:15.314Z,100018.09
2022-10-24T21:48:43.551Z,100014.63
2022-10-24T21:51:17.759Z,100006.84
2022-10-24T21:53:48.291Z,100011.19
2022-10-24T21:56:17.545Z,100010.34
2022-10-24T21:59:14.847Z,100019.00
2022-10-24T22:01:42.992Z,100018.16
2022-10-24T22:04:11.478Z,100028.50
2022-10-24T22:06:38.225Z,100027.66
2022-10-24T22:09:07.038Z,100024.16
2022-10-24T22:11:35.473Z,100034.56
2022-10-24T22:14:04.182Z,100041.53
2022-10-24T22:16:32.135Z,100033.72
2022-10-24T22:19:04.394Z,100024.22
2022-10-24T22:21:40.061Z,100023.34
2022-10-24T22:24:12.523Z,100022.47
2022-10-24T22:26:39.449Z,100024.19
2022-10-24T22:29:07.994Z,100014.72
2022-10-24T22:31:35.170Z,100021.66
2022-10-24T22:34:02.960Z,100021.66
2022-10-24T22:36:44.375Z,100023.38
2022-10-24T22:39:22.247Z,100019.91
2022-10-24T22:41:49.479Z,100018.19
2022-10-24T22:44:18.049Z,100016.47
2022-10-24T22:47:03.915Z,100010.41
2022-10-24T22:49:51.461Z,100006.09
2022-10-24T22:52:18.304Z,100006.09
2022-10-24T22:54:45.170Z,100009.56
2022-10-24T22:57:11.957Z,100012.16
2022-10-24T22:59:38.827Z,100015.63
2022-10-24T23:02:18.940Z,100023.38
2022-10-24T23:05:04.278Z,100020.78
2022-10-24T23:07:43.711Z,100017.34
2022-10-24T23:10:13.939Z,100018.19
2022-10-24T23:12:40.820Z,100019.06
2022-10-24T23:15:13.570Z,100021.59
2022-10-24T23:17:40.708Z,100028.53
2022-10-24T23:20:31.835Z,100032.84
2022-10-24T23:23:09.546Z,100032.84
2022-10-24T23:26:04.035Z,100025.09
2022-10-24T23:28:41.499Z,100020.75
2022-10-24T23:31:08.525Z,100017.28
2022-10-24T23:33:36.156Z,100022.50
2022-10-24T23:36:03.002Z,100012.13
2022-10-24T23:38:29.798Z,100009.56
2022-10-24T23:40:56.770Z,100009.56
2022-10-24T23:43:23.627Z,100003.50
2022-10-24T23:46:01.659Z,100002.66
2022-10-24T23:48:51.279Z,100004.31
2022-10-24T23:51:19.173Z,100001.75
2022-10-24T23:53:53.011Z,100010.38
2022-10-24T23:56:25.395Z,100012.09
2022-10-24T23:58:52.817Z,100006.91
